Time;durP1;ratioP1;P1;durP2;ratioP2;P2;SDS_P1;SDS_P2;PMS_P1;PMS_P2;Temp;Humidity;BMP_temperature;BMP_pressure;BME280_temperature;BME280_humidity;BME280_pressure;Samples;Min_cycle;Max_cycle;Signal;HPM_P1;HPM_P2
2023/04/13 00:02:26;;;;;;;2.53;1.00;;;8.10;99.90;;;;;;5059925;28;20442;-71
2023/04/13 00:05:12;;;;;;;3.73;1.40;;;8.10;99.90;;;;;;5055063;28;20537;-71
2023/04/13 00:08:01;;;;;;;6.00;1.53;;;8.10;99.90;;;;;;5065399;28;20954;-71
2023/04/13 00:10:47;;;;;;;3.00;1.13;;;8.10;99.90;;;;;;5063454;28;20961;-71
2023/04/13 00:13:39;;;;;;;2.60;1.10;;;8.10;99.90;;;;;;5054821;28;20440;-71
2023/04/13 00:16:28;;;;;;;2.90;1.30;;;8.00;99.90;;;;;;5066958;28;20592;-71
2023/04/13 00:19:13;;;;;;;2.90;1.03;;;8.10;99.90;;;;;;5064730;28;20437;-70
2023/04/13 00:21:59;;;;;;;3.20;1.33;;;8.10;99.90;;;;;;5062243;28;20453;-71
2023/04/13 00:24:45;;;;;;;2.33;1.30;;;8.10;99.90;;;;;;5066673;28;20470;-71
2023/04/13 00:27:30;;;;;;;4.00;1.60;;;8.30;99.90;;;;;;5058511;28;20804;-71
2023/04/13 00:30:17;;;;;;;4.10;1.73;;;8.20;99.90;;;;;;5058007;28;20815;-71
2023/04/13 00:33:05;;;;;;;3.10;1.13;;;8.30;99.90;;;;;;5058845;28;20434;-71
2023/04/13 00:35:50;;;;;;;2.40;1.17;;;8.40;99.90;;;;;;5061689;28;20482;-71
2023/04/13 00:38:36;;;;;;;2.37;1.20;;;8.30;99.90;;;;;;5060094;28;20468;-71
2023/04/13 00:41:21;;;;;;;2.53;1.50;;;8.30;99.90;;;;;;5062743;28;21028;-70
2023/04/13 00:44:08;;;;;;;2.93;1.70;;;8.30;99.90;;;;;;5056857;28;20971;-71
2023/04/13 00:46:55;;;;;;;4.23;1.50;;;8.30;99.90;;;;;;5058253;28;20443;-71
2023/04/13 00:49:42;;;;;;;3.93;1.43;;;8.30;99.90;;;;;;5054615;28;20442;-71
2023/04/13 00:52:28;;;;;;;2.50;1.50;;;8.30;99.90;;;;;;5057757;28;20461;-70
2023/04/13 00:55:19;;;;;;;6.23;2.50;;;8.20;99.90;;;;;;5056400;28;21038;-71
2023/04/13 00:58:05;;;;;;;3.43;1.37;;;8.20;99.90;;;;;;5056754;28;20445;-70
2023/04/13 01:00:50;;;;;;;2.80;1.40;;;8.10;99.90;;;;;;5059827;28;20522;-71
2023/04/13 01:03:36;;;;;;;5.30;1.50;;;8.10;99.90;;;;;;5059991;28;20418;-71
2023/04/13 01:06:30;;;;;;;3.50;1.13;;;8.00;99.90;;;;;;5061676;28;20785;-71
2023/04/13 01:09:19;;;;;;;4.60;1.90;;;8.00;99.90;;;;;;5055892;28;20422;-71
2023/04/13 01:12:11;;;;;;;4.03;1.20;;;7.90;99.90;;;;;;5057997;28;20474;-71
2023/04/13 01:15:01;;;;;;;8.20;1.60;;;7.90;99.90;;;;;;5054330;28;20452;-71
2023/04/13 01:17:55;;;;;;;2.77;1.17;;;7.80;99.90;;;;;;5058679;28;20466;-71
2023/04/13 01:20:44;;;;;;;5.23;1.47;;;7.90;99.90;;;;;;5058741;28;20468;-71
2023/04/13 01:23:51;;;;;;;4.63;1.67;;;7.90;99.90;;;;;;5065886;28;20509;-71
2023/04/13 01:26:49;;;;;;;5.33;1.40;;;7.90;99.90;;;;;;5073268;28;20499;-71
2023/04/13 01:29:37;;;;;;;2.73;1.57;;;7.80;99.90;;;;;;5064282;28;20498;-71
2023/04/13 01:32:23;;;;;;;4.27;2.00;;;8.00;99.90;;;;;;5069795;28;20980;-71
2023/04/13 01:35:09;;;;;;;5.20;1.80;;;7.90;99.90;;;;;;5064973;28;20618;-71
2023/04/13 01:37:56;;;;;;;3.30;1.30;;;8.00;99.90;;;;;;5066437;28;20973;-71
2023/04/13 01:40:43;;;;;;;2.87;1.47;;;8.00;99.90;;;;;;5059337;28;20396;-71
2023/04/13 01:43:29;;;;;;;2.93;1.20;;;8.00;99.90;;;;;;5073221;28;20572;-71
2023/04/13 01:46:16;;;;;;;4.33;1.40;;;8.00;99.90;;;;;;5064918;28;20957;-71
2023/04/13 01:49:03;;;;;;;5.50;1.87;;;8.10;99.90;;;;;;5065327;28;20424;-71
2023/04/13 01:51:52;;;;;;;4.93;1.90;;;8.00;99.90;;;;;;5067677;28;20547;-71
2023/04/13 01:54:44;;;;;;;3.80;1.50;;;8.00;99.90;;;;;;5060338;28;20854;-70
2023/04/13 01:57:31;;;;;;;2.70;0.90;;;7.90;99.90;;;;;;5061847;28;20421;-70
2023/04/13 02:00:18;;;;;;;5.53;1.70;;;7.90;99.90;;;;;;5064045;28;20422;-71
2023/04/13 02:03:08;;;;;;;3.43;1.20;;;7.80;99.90;;;;;;5061874;28;20437;-70
2023/04/13 02:05:55;;;;;;;5.37;1.10;;;7.80;99.90;;;;;;5060450;28;20854;-71
2023/04/13 02:08:41;;;;;;;3.90;1.63;;;7.80;99.90;;;;;;5057850;28;20496;-71
2023/04/13 02:11:27;;;;;;;6.67;1.60;;;7.80;99.90;;;;;;5067695;28;20521;-71
2023/04/13 02:14:13;;;;;;;10.40;1.20;;;7.90;99.90;;;;;;5058965;28;20448;-71
2023/04/13 02:16:59;;;;;;;2.67;1.20;;;7.90;99.90;;;;;;5065158;28;20445;-71
2023/04/13 02:19:46;;;;;;;3.90;1.40;;;7.90;99.90;;;;;;5064160;28;20450;-71
2023/04/13 02:22:32;;;;;;;2.63;1.23;;;7.90;99.90;;;;;;5064455;28;20808;-71
2023/04/13 02:25:17;;;;;;;6.57;1.63;;;8.00;99.90;;;;;;5060811;28;20445;-71
2023/04/13 02:28:03;;;;;;;2.80;1.00;;;8.10;99.90;;;;;;5059636;28;20417;-71
2023/04/13 02:30:49;;;;;;;7.80;1.30;;;8.20;99.90;;;;;;5062032;28;20593;-71
2023/04/13 02:33:36;;;;;;;3.63;1.00;;;8.40;99.90;;;;;;5062699;28;20411;-71
2023/04/13 02:36:23;;;;;;;3.50;1.27;;;8.40;99.90;;;;;;5069537;28;21463;-71
2023/04/13 02:39:09;;;;;;;4.90;1.40;;;8.40;99.90;;;;;;5063310;28;20821;-70
2023/04/13 02:41:54;;;;;;;11.93;1.50;;;8.40;99.90;;;;;;5058110;28;20492;-70
2023/04/13 02:44:40;;;;;;;9.23;1.53;;;8.50;99.90;;;;;;5062794;28;20457;-71
2023/04/13 02:47:26;;;;;;;2.77;1.00;;;8.50;99.90;;;;;;5056732;28;20875;-71
2023/04/13 02:50:12;;;;;;;5.20;1.73;;;8.60;99.90;;;;;;5067611;28;20725;-71
2023/04/13 02:52:59;;;;;;;3.70;1.00;;;8.60;99.90;;;;;;5063186;28;20395;-71
2023/04/13 02:55:46;;;;;;;2.00;1.03;;;8.70;99.90;;;;;;5062688;28;20807;-70
2023/04/13 02:58:31;;;;;;;4.17;1.73;;;8.70;99.90;;;;;;5061165;28;20438;-71
2023/04/13 03:01:17;;;;;;;3.37;0.90;;;8.80;99.90;;;;;;5065393;28;20584;-71
2023/04/13 03:04:02;;;;;;;4.17;0.93;;;8.80;99.90;;;;;;5061838;28;20555;-70
2023/04/13 03:06:48;;;;;;;2.97;1.13;;;8.70;99.90;;;;;;5064404;28;20450;-71
2023/04/13 03:09:35;;;;;;;2.90;1.07;;;8.70;99.90;;;;;;5058848;28;21056;-71
2023/04/13 03:12:21;;;;;;;2.03;1.00;;;8.70;99.90;;;;;;5057508;28;20465;-71
2023/04/13 03:15:10;;;;;;;9.30;1.40;;;8.60;99.90;;;;;;5059151;28;21013;-71
2023/04/13 03:17:58;;;;;;;2.80;1.40;;;8.60;99.90;;;;;;5059317;28;20446;-71
2023/04/13 03:20:44;;;;;;;4.20;1.13;;;8.70;99.90;;;;;;5063258;28;20445;-70
2023/04/13 03:23:30;;;;;;;5.93;1.90;;;8.70;99.90;;;;;;5056971;28;20448;-70
2023/04/13 03:26:17;;;;;;;4.83;0.90;;;8.70;99.90;;;;;;5061683;28;20454;-71
2023/04/13 03:29:02;;;;;;;4.97;1.30;;;8.70;99.90;;;;;;5058760;28;20985;-71
2023/04/13 03:31:48;;;;;;;7.80;1.10;;;8.60;99.90;;;;;;5060022;28;20449;-71
2023/04/13 03:34:34;;;;;;;4.73;1.00;;;8.70;99.90;;;;;;5063664;28;20472;-71
2023/04/13 03:37:19;;;;;;;5.07;1.50;;;8.70;99.90;;;;;;5062493;28;20414;-71
2023/04/13 03:40:09;;;;;;;2.33;0.90;;;8.70;99.90;;;;;;5057363;28;20530;-70
2023/04/13 03:42:56;;;;;;;2.60;1.20;;;8.70;99.90;;;;;;5065771;28;21032;-71
2023/04/13 03:45:41;;;;;;;5.73;1.27;;;8.70;99.90;;;;;;5066874;28;21005;-70
2023/04/13 03:48:27;;;;;;;4.47;1.10;;;8.60;99.90;;;;;;5061502;28;20580;-71
2023/04/13 03:51:12;;;;;;;7.13;1.70;;;8.60;99.90;;;;;;5065176;28;20453;-71
2023/04/13 03:53:58;;;;;;;3.80;1.30;;;8.60;99.90;;;;;;5061467;28;20552;-71
2023/04/13 03:56:44;;;;;;;6.70;1.33;;;8.60;99.90;;;;;;5056090;28;20595;-71
2023/04/13 03:59:31;;;;;;;5.90;1.50;;;8.50;99.90;;;;;;5059771;28;20794;-71
2023/04/13 04:02:16;;;;;;;6.80;1.80;;;8.60;99.90;;;;;;5055249;28;20603;-71
2023/04/13 04:05:02;;;;;;;4.67;1.43;;;8.60;99.90;;;;;;5055422;28;20439;-71
2023/04/13 04:07:47;;;;;;;10.27;2.00;;;8.60;99.90;;;;;;5056843;28;20444;-71
2023/04/13 04:10:33;;;;;;;4.63;1.37;;;8.60;99.90;;;;;;5060531;28;20655;-71
2023/04/13 04:13:19;;;;;;;5.37;1.30;;;8.60;99.90;;;;;;5063593;28;20445;-71
2023/04/13 04:16:07;;;;;;;5.20;1.10;;;8.60;99.90;;;;;;5058173;28;21112;-71
2023/04/13 04:18:53;;;;;;;6.50;1.30;;;8.60;99.90;;;;;;5058283;28;20436;-71
2023/04/13 04:21:45;;;;;;;4.17;1.50;;;8.60;99.90;;;;;;5061093;28;20904;-71
2023/04/13 04:24:31;;;;;;;5.68;1.10;;;8.60;99.90;;;;;;5058411;28;20509;-71
2023/04/13 04:27:16;;;;;;;5.97;1.60;;;8.50;99.90;;;;;;5059065;28;20201;-71
2023/04/13 04:30:04;;;;;;;5.73;1.90;;;8.50;99.90;;;;;;5063640;28;20788;-71
2023/04/13 04:32:53;;;;;;;2.73;1.30;;;8.50;99.90;;;;;;5061496;28;20504;-71
2023/04/13 04:35:48;;;;;;;8.67;1.77;;;8.40;99.90;;;;;;5057323;28;20840;-71
2023/04/13 04:38:34;;;;;;;10.20;2.13;;;8.40;99.90;;;;;;5062385;28;20566;-71
2023/04/13 04:41:19;;;;;;;4.63;1.57;;;8.40;99.90;;;;;;5065695;28;20410;-71
2023/04/13 04:44:06;;;;;;;8.60;2.07;;;8.40;99.90;;;;;;5063394;28;20536;-71
2023/04/13 04:46:52;;;;;;;4.23;1.23;;;8.50;99.90;;;;;;5061180;28;20840;-71
2023/04/13 04:49:40;;;;;;;4.20;1.67;;;8.40;99.90;;;;;;5062492;28;20421;-71
2023/04/13 04:52:25;;;;;;;7.70;2.10;;;8.40;99.90;;;;;;5056321;28;21101;-71
2023/04/13 04:55:11;;;;;;;6.23;2.70;;;8.50;99.90;;;;;;5060053;28;20594;-70
2023/04/13 04:57:57;;;;;;;10.57;2.50;;;8.50;99.90;;;;;;5056305;28;20610;-71
2023/04/13 05:00:42;;;;;;;7.37;1.67;;;8.50;99.90;;;;;;5067055;28;20890;-71
2023/04/13 05:03:28;;;;;;;9.03;1.63;;;8.40;99.90;;;;;;5067566;28;20858;-71
2023/04/13 05:06:15;;;;;;;4.90;1.87;;;8.50;99.90;;;;;;5057121;28;20466;-71
2023/04/13 05:09:00;;;;;;;6.20;1.80;;;8.40;99.90;;;;;;5066394;28;20822;-71
2023/04/13 05:11:46;;;;;;;4.53;2.00;;;8.40;99.90;;;;;;5059555;28;20443;-71
2023/04/13 05:14:32;;;;;;;4.27;1.67;;;8.30;99.90;;;;;;5059095;28;21016;-71
2023/04/13 05:17:18;;;;;;;7.83;2.27;;;8.40;99.90;;;;;;5065282;28;20623;-71
2023/04/13 05:20:05;;;;;;;6.80;1.80;;;8.40;99.90;;;;;;5055810;28;20589;-71
2023/04/13 05:22:52;;;;;;;7.30;1.83;;;8.40;99.90;;;;;;5060544;28;20572;-71
2023/04/13 05:25:38;;;;;;;5.40;1.97;;;8.40;99.90;;;;;;5067187;28;20462;-71
2023/04/13 05:28:23;;;;;;;5.90;1.80;;;8.40;99.90;;;;;;5055840;28;20450;-71
2023/04/13 05:31:09;;;;;;;8.20;1.87;;;8.40;99.90;;;;;;5061179;28;20437;-71
2023/04/13 05:33:55;;;;;;;5.43;1.63;;;8.40;99.90;;;;;;5056467;28;20814;-71
2023/04/13 05:36:40;;;;;;;4.27;1.90;;;8.50;99.90;;;;;;5062098;28;20449;-70
2023/04/13 05:39:28;;;;;;;6.43;2.20;;;8.50;99.90;;;;;;5066244;28;20810;-71
2023/04/13 05:42:15;;;;;;;5.53;1.70;;;8.60;99.90;;;;;;5071647;28;20433;-71
2023/04/13 05:45:01;;;;;;;10.00;2.53;;;8.60;99.90;;;;;;5064461;28;20443;-71
2023/04/13 05:47:46;;;;;;;4.60;2.20;;;8.50;99.90;;;;;;5066900;28;20438;-71
2023/04/13 05:50:33;;;;;;;5.80;1.67;;;8.40;99.90;;;;;;5065039;28;20752;-71
2023/04/13 05:53:18;;;;;;;7.30;2.00;;;8.40;99.90;;;;;;5070148;28;20471;-71
2023/04/13 05:56:06;;;;;;;12.23;2.50;;;8.40;99.90;;;;;;5066932;28;20468;-71
2023/04/13 05:58:52;;;;;;;9.87;2.30;;;8.50;99.90;;;;;;5064846;28;20550;-71
2023/04/13 06:01:38;;;;;;;6.80;1.87;;;8.60;99.90;;;;;;5066549;28;20477;-71
2023/04/13 06:04:23;;;;;;;14.40;3.00;;;8.60;99.90;;;;;;5066723;28;21306;-71
2023/04/13 06:07:09;;;;;;;10.13;2.60;;;8.60;99.90;;;;;;5060441;28;20499;-71
2023/04/13 06:09:55;;;;;;;10.53;2.97;;;8.60;99.90;;;;;;5057666;28;21212;-71
2023/04/13 06:12:47;;;;;;;12.50;2.17;;;8.50;99.90;;;;;;5061596;28;20520;-71
2023/04/13 06:15:32;;;;;;;5.10;2.10;;;8.60;99.90;;;;;;5061127;28;20467;-71
2023/04/13 06:18:17;;;;;;;9.30;1.90;;;8.60;99.90;;;;;;5059758;28;21010;-71
2023/04/13 06:21:04;;;;;;;13.07;2.00;;;8.60;99.90;;;;;;5062822;28;20587;-71
2023/04/13 06:23:50;;;;;;;10.40;2.40;;;8.60;99.90;;;;;;5058220;28;20545;-71
2023/04/13 06:26:36;;;;;;;7.97;2.43;;;8.60;99.90;;;;;;5062476;28;20924;-71
2023/04/13 06:29:23;;;;;;;6.40;2.50;;;8.70;99.90;;;;;;5061610;28;20444;-71
2023/04/13 06:32:08;;;;;;;5.47;2.95;;;8.80;99.90;;;;;;5061459;28;20411;-71
2023/04/13 06:34:54;;;;;;;10.50;2.80;;;8.80;99.90;;;;;;5058744;28;20283;-71
2023/04/13 06:37:40;;;;;;;4.60;1.93;;;8.80;99.90;;;;;;5058350;28;20547;-72
2023/04/13 06:40:26;;;;;;;10.43;2.33;;;8.80;99.90;;;;;;5056095;28;20448;-71
2023/04/13 06:43:12;;;;;;;10.43;2.60;;;8.90;99.90;;;;;;5056714;28;20844;-71
2023/04/13 06:46:00;;;;;;;9.00;2.13;;;8.90;99.90;;;;;;5067316;28;20459;-71
2023/04/13 06:48:46;;;;;;;13.17;3.07;;;9.00;99.90;;;;;;5059525;28;20449;-71
2023/04/13 06:51:32;;;;;;;10.33;2.60;;;9.00;99.90;;;;;;5063251;28;20548;-71
2023/04/13 06:54:18;;;;;;;10.17;2.20;;;9.00;99.90;;;;;;5062497;28;21248;-71
2023/04/13 06:57:03;;;;;;;11.93;2.53;;;9.00;99.90;;;;;;5069808;28;20546;-71
2023/04/13 06:59:49;;;;;;;19.67;2.70;;;8.90;99.90;;;;;;5060422;28;20954;-71
2023/04/13 07:02:36;;;;;;;9.17;2.60;;;8.80;99.90;;;;;;5063660;28;20480;-71
2023/04/13 07:05:22;;;;;;;8.40;2.43;;;8.80;99.90;;;;;;5060477;28;20471;-71
2023/04/13 07:08:08;;;;;;;7.10;2.30;;;8.70;99.90;;;;;;5054687;28;20452;-71
2023/04/13 07:10:54;;;;;;;9.33;2.13;;;8.80;99.90;;;;;;5054933;28;20806;-71
2023/04/13 07:13:40;;;;;;;10.40;1.97;;;8.80;99.90;;;;;;5055949;28;20418;-72
2023/04/13 07:16:26;;;;;;;12.73;2.60;;;8.90;99.90;;;;;;5053838;28;22029;-70
2023/04/13 07:19:12;;;;;;;9.57;2.50;;;9.00;99.90;;;;;;5061314;28;20467;-71
2023/04/13 07:21:59;;;;;;;12.83;2.37;;;8.90;99.90;;;;;;5060040;28;20838;-71
2023/04/13 07:24:45;;;;;;;13.40;1.90;;;8.90;99.90;;;;;;5061176;28;20460;-71
2023/04/13 07:27:31;;;;;;;6.27;2.17;;;8.90;99.90;;;;;;5060343;28;20515;-71
2023/04/13 07:30:17;;;;;;;14.53;2.30;;;9.00;99.90;;;;;;5058842;28;20460;-71
2023/04/13 07:33:03;;;;;;;9.77;2.80;;;9.00;99.90;;;;;;5059112;28;20443;-72
2023/04/13 07:35:53;;;;;;;7.87;2.87;;;9.00;99.90;;;;;;5062036;28;21072;-71
2023/04/13 07:38:39;;;;;;;7.20;1.87;;;9.00;99.90;;;;;;5056758;28;20916;-70
2023/04/13 07:41:25;;;;;;;9.77;2.30;;;9.00;99.90;;;;;;5051534;28;20444;-69
2023/04/13 07:44:10;;;;;;;14.10;3.00;;;9.00;99.90;;;;;;5059877;28;20882;-69
2023/04/13 07:46:56;;;;;;;17.23;2.73;;;9.00;99.90;;;;;;5056954;28;20807;-69
2023/04/13 07:49:42;;;;;;;9.77;2.10;;;9.00;99.90;;;;;;5056650;28;20441;-69
2023/04/13 07:52:29;;;;;;;7.57;2.80;;;8.90;99.90;;;;;;5058405;28;20823;-69
2023/04/13 07:55:15;;;;;;;8.87;2.00;;;8.80;99.90;;;;;;5056276;28;20997;-70
2023/04/13 07:58:01;;;;;;;7.03;2.33;;;8.70;99.90;;;;;;5058720;28;20604;-70
2023/04/13 08:00:47;;;;;;;17.80;2.93;;;8.60;99.90;;;;;;5056467;28;20445;-71
2023/04/13 08:03:33;;;;;;;14.30;3.23;;;8.50;99.90;;;;;;5061598;28;20580;-71
2023/04/13 08:06:19;;;;;;;9.70;2.17;;;8.60;99.90;;;;;;5063398;28;20472;-71
2023/04/13 08:09:08;;;;;;;13.50;2.80;;;8.60;99.90;;;;;;5055885;28;20925;-71
2023/04/13 08:11:54;;;;;;;11.53;2.23;;;8.70;99.90;;;;;;5058950;28;20449;-71
2023/04/13 08:14:39;;;;;;;10.47;2.43;;;8.60;99.90;;;;;;5063939;28;20462;-71
2023/04/13 08:17:25;;;;;;;9.17;2.50;;;8.50;99.90;;;;;;5058301;28;21041;-71
2023/04/13 08:20:12;;;;;;;10.07;2.40;;;8.50;99.90;;;;;;5067644;28;20417;-71
2023/04/13 08:22:58;;;;;;;10.57;2.77;;;8.40;99.90;;;;;;5064727;28;20546;-71
2023/04/13 08:25:46;;;;;;;10.10;2.40;;;8.30;99.90;;;;;;5065241;28;20471;-72
2023/04/13 08:28:32;;;;;;;14.37;3.20;;;8.40;99.90;;;;;;5059023;28;20942;-72
2023/04/13 08:31:17;;;;;;;9.57;2.23;;;8.50;99.90;;;;;;5062041;28;20447;-72
2023/04/13 08:34:03;;;;;;;18.37;3.33;;;8.60;99.90;;;;;;5060428;28;20462;-72
2023/04/13 08:36:49;;;;;;;24.70;3.00;;;8.50;99.90;;;;;;5063345;28;20471;-72
2023/04/13 08:39:34;;;;;;;15.03;2.97;;;8.60;99.90;;;;;;5063053;28;20937;-72
2023/04/13 08:42:22;;;;;;;14.00;2.73;;;8.70;99.90;;;;;;5057638;28;20604;-72
2023/04/13 08:45:09;;;;;;;18.33;2.80;;;8.70;99.90;;;;;;5064067;28;22138;-72
2023/04/13 08:47:54;;;;;;;13.30;2.53;;;8.70;99.90;;;;;;5067466;28;20536;-72
2023/04/13 08:50:40;;;;;;;7.90;2.43;;;8.70;99.90;;;;;;5064679;28;20588;-72
2023/04/13 08:53:26;;;;;;;15.40;2.80;;;8.70;99.90;;;;;;5059552;28;20463;-73
2023/04/13 08:56:15;;;;;;;14.97;3.13;;;8.70;99.90;;;;;;5059060;28;20466;-72
2023/04/13 08:59:05;;;;;;;10.93;2.53;;;8.60;99.90;;;;;;5068883;28;20450;-73
2023/04/13 09:01:52;;;;;;;7.40;2.22;;;8.70;99.90;;;;;;5066796;28;21083;-72
2023/04/13 09:04:38;;;;;;;14.83;3.00;;;8.70;99.90;;;;;;5067617;28;20228;-73
2023/04/13 09:07:26;;;;;;;13.03;2.87;;;8.80;99.90;;;;;;5063744;28;20512;-72
2023/04/13 09:10:15;;;;;;;10.87;2.37;;;8.80;99.90;;;;;;5061584;28;20458;-73
2023/04/13 09:13:00;;;;;;;15.43;3.93;;;8.80;99.90;;;;;;5061977;28;20790;-72
2023/04/13 09:15:48;;;;;;;8.77;2.30;;;8.90;99.90;;;;;;5062718;28;20467;-72
2023/04/13 09:18:33;;;;;;;10.93;2.75;;;8.90;99.90;;;;;;5055612;28;20472;-73
2023/04/13 09:21:19;;;;;;;9.20;1.90;;;8.90;99.90;;;;;;5059094;28;20683;-72
2023/04/13 09:24:06;;;;;;;15.90;2.80;;;8.80;99.90;;;;;;5072655;28;20440;-73
2023/04/13 09:26:51;;;;;;;13.53;2.70;;;8.90;99.90;;;;;;5067889;28;20428;-72
2023/04/13 09:29:49;;;;;;;8.17;2.40;;;9.00;99.90;;;;;;5067271;28;20448;-72
2023/04/13 09:32:36;;;;;;;8.90;2.00;;;9.00;99.90;;;;;;5060739;28;20491;-72
2023/04/13 09:35:21;;;;;;;9.83;2.77;;;9.00;99.90;;;;;;5065433;28;21029;-72
2023/04/13 09:38:07;;;;;;;8.23;2.23;;;9.00;99.90;;;;;;5061765;28;21017;-72
2023/04/13 09:40:53;;;;;;;10.53;2.40;;;9.10;99.90;;;;;;5063263;28;20441;-72
2023/04/13 09:43:39;;;;;;;9.63;2.57;;;9.10;99.90;;;;;;5064502;28;20585;-72
2023/04/13 09:46:25;;;;;;;15.90;2.73;;;9.10;99.90;;;;;;5064296;28;20445;-72
2023/04/13 09:49:12;;;;;;;8.80;2.90;;;9.10;99.90;;;;;;5065745;28;20457;-72
2023/04/13 09:51:58;;;;;;;12.23;3.33;;;9.20;99.90;;;;;;5058449;28;20448;-72
2023/04/13 09:54:44;;;;;;;16.57;6.57;;;9.20;99.90;;;;;;5061548;28;20475;-72
2023/04/13 09:57:31;;;;;;;6.17;2.63;;;9.30;99.90;;;;;;5070405;28;20982;-72
2023/04/13 10:00:19;;;;;;;8.47;2.63;;;9.20;99.90;;;;;;5065810;28;20702;-72
2023/04/13 10:03:09;;;;;;;10.93;2.27;;;9.20;99.90;;;;;;5059961;28;21102;-72
2023/04/13 10:05:57;;;;;;;12.20;2.77;;;9.10;99.90;;;;;;5058600;28;20550;-72
2023/04/13 10:08:45;;;;;;;5.77;2.20;;;9.10;99.90;;;;;;5052928;28;20441;-72
2023/04/13 10:11:33;;;;;;;6.50;2.10;;;9.10;99.90;;;;;;5064052;28;20441;-72
2023/04/13 10:14:24;;;;;;;6.10;1.70;;;9.20;99.90;;;;;;5062952;28;20548;-72
2023/04/13 10:17:37;;;;;;;13.23;2.43;;;9.20;99.90;;;;;;5072930;28;20511;-72
2023/04/13 10:20:23;;;;;;;7.40;1.63;;;9.30;99.90;;;;;;5066171;28;20469;-72
2023/04/13 10:23:11;;;;;;;8.47;2.53;;;9.30;99.90;;;;;;5061991;28;20967;-72
2023/04/13 10:25:59;;;;;;;6.63;2.20;;;9.30;99.90;;;;;;5055812;28;20463;-72
2023/04/13 10:28:45;;;;;;;6.33;1.77;;;9.40;99.90;;;;;;5063263;28;20450;-72
2023/04/13 10:31:39;;;;;;;5.77;2.10;;;9.40;99.90;;;;;;5068289;28;20452;-72
2023/04/13 10:34:26;;;;;;;6.30;1.93;;;9.40;99.90;;;;;;5057882;28;20448;-72
2023/04/13 10:37:18;;;;;;;9.10;1.90;;;9.50;99.90;;;;;;5066429;28;20485;-72
2023/04/13 10:40:06;;;;;;;9.33;2.40;;;9.50;99.90;;;;;;5060268;28;20414;-72
2023/04/13 10:42:52;;;;;;;4.40;1.70;;;9.40;99.90;;;;;;5060056;28;20429;-72
2023/04/13 10:45:38;;;;;;;5.03;1.87;;;9.50;99.90;;;;;;5057900;28;20449;-72
2023/04/13 10:48:24;;;;;;;5.23;1.83;;;9.50;99.90;;;;;;5068013;28;20447;-72
2023/04/13 10:51:09;;;;;;;10.97;2.23;;;9.60;99.90;;;;;;5059226;28;20973;-72
2023/04/13 10:54:04;;;;;;;8.13;1.70;;;9.60;99.90;;;;;;5063349;28;21001;-72
2023/04/13 10:56:57;;;;;;;5.10;1.53;;;9.70;99.90;;;;;;5061414;28;20453;-72
2023/04/13 10:59:44;;;;;;;6.67;1.80;;;9.70;99.90;;;;;;5062564;28;20901;-72
2023/04/13 11:02:31;;;;;;;5.90;1.57;;;9.60;99.90;;;;;;5060057;28;20975;-72
2023/04/13 11:05:18;;;;;;;4.77;1.63;;;9.70;99.90;;;;;;5061332;28;20984;-72
2023/04/13 11:08:04;;;;;;;3.90;1.40;;;9.70;99.90;;;;;;5058185;28;20432;-72
2023/04/13 11:10:54;;;;;;;2.47;1.20;;;9.80;99.90;;;;;;5057945;28;20457;-72
2023/04/13 11:13:47;;;;;;;34.20;17.40;;;9.80;99.90;;;;;;5060612;28;20440;-72
2023/04/13 11:16:44;;;;;;;18.97;8.50;;;9.80;99.90;;;;;;5059020;28;20513;-72
2023/04/13 11:19:29;;;;;;;5.30;2.60;;;9.80;99.90;;;;;;5060139;28;20543;-72
2023/04/13 11:22:17;;;;;;;8.47;2.17;;;9.90;99.90;;;;;;5060565;28;20848;-72
2023/04/13 11:25:07;;;;;;;6.57;1.73;;;10.00;99.90;;;;;;5063603;28;20464;-72
2023/04/13 11:27:57;;;;;;;5.83;1.70;;;10.10;99.90;;;;;;5059897;28;20559;-72
2023/04/13 11:30:52;;;;;;;3.03;1.60;;;10.20;99.90;;;;;;5056249;28;20495;-72
2023/04/13 11:33:37;;;;;;;4.17;1.50;;;10.20;99.90;;;;;;5060885;28;20524;-72
2023/04/13 11:36:23;;;;;;;12.87;1.73;;;10.20;99.90;;;;;;5064154;28;20485;-72
2023/04/13 11:39:09;;;;;;;4.47;2.13;;;10.20;99.90;;;;;;5062960;28;20474;-73
2023/04/13 11:41:55;;;;;;;5.57;2.00;;;10.10;99.90;;;;;;5062114;28;20437;-72
2023/04/13 11:44:44;;;;;;;3.90;1.50;;;10.10;99.90;;;;;;5061323;28;20534;-72
2023/04/13 11:47:32;;;;;;;4.43;1.77;;;10.30;99.90;;;;;;5059821;28;20481;-72
2023/04/13 11:50:18;;;;;;;3.17;1.50;;;10.40;99.90;;;;;;5060026;28;20923;-72
2023/04/13 11:53:04;;;;;;;3.10;1.20;;;10.50;99.90;;;;;;5062983;28;20437;-72
2023/04/13 11:55:50;;;;;;;4.40;1.43;;;10.80;99.90;;;;;;5056326;28;20474;-72
2023/04/13 11:58:37;;;;;;;2.90;1.37;;;11.10;99.90;;;;;;5061401;28;20511;-72
2023/04/13 12:01:23;;;;;;;3.47;1.70;;;11.20;99.90;;;;;;5056087;28;21000;-72
2023/04/13 12:04:13;;;;;;;4.70;1.57;;;11.30;99.90;;;;;;5059313;28;20499;-72
2023/04/13 12:06:59;;;;;;;6.07;1.60;;;11.40;99.90;;;;;;5063181;28;20631;-72
2023/04/13 12:09:46;;;;;;;5.37;2.07;;;11.30;99.90;;;;;;5060312;28;20433;-72
2023/04/13 12:12:32;;;;;;;9.23;2.80;;;11.20;99.90;;;;;;5061239;28;22623;-72
2023/04/13 12:15:24;;;;;;;4.80;1.77;;;11.00;99.90;;;;;;5061103;28;20436;-72
2023/04/13 12:18:13;;;;;;;4.57;1.97;;;11.00;99.90;;;;;;5056457;28;21006;-72
2023/04/13 12:21:02;;;;;;;4.00;1.50;;;11.00;99.90;;;;;;5056111;28;20444;-72
2023/04/13 12:23:54;;;;;;;5.83;2.03;;;11.00;99.90;;;;;;5062898;28;20919;-72
2023/04/13 12:26:40;;;;;;;5.80;2.00;;;11.00;99.90;;;;;;5059066;28;20503;-72
2023/04/13 12:29:26;;;;;;;3.80;1.63;;;11.00;99.90;;;;;;5055182;28;20894;-71
2023/04/13 12:32:13;;;;;;;4.10;1.80;;;11.20;99.90;;;;;;5059390;28;20419;-71
2023/04/13 12:34:59;;;;;;;8.90;3.97;;;11.70;99.90;;;;;;5058103;28;20483;-71
2023/04/13 12:37:48;;;;;;;5.17;1.53;;;11.80;99.90;;;;;;5063355;28;20439;-71
2023/04/13 12:40:33;;;;;;;5.10;2.33;;;11.90;99.90;;;;;;5057409;28;20451;-72
2023/04/13 12:43:19;;;;;;;6.30;2.30;;;12.10;99.90;;;;;;5061285;28;20447;-72
2023/04/13 12:46:05;;;;;;;4.50;1.90;;;12.30;99.90;;;;;;5050087;28;20464;-72
2023/04/13 12:48:51;;;;;;;6.27;2.13;;;12.20;99.90;;;;;;5052682;28;20490;-72
2023/04/13 12:51:36;;;;;;;5.30;1.93;;;12.10;99.90;;;;;;5060857;28;20560;-71
2023/04/13 12:54:23;;;;;;;5.47;1.30;;;11.90;99.90;;;;;;5057985;28;20481;-72
2023/04/13 12:57:09;;;;;;;9.17;2.07;;;12.00;99.90;;;;;;5058581;28;20433;-71
2023/04/13 12:59:55;;;;;;;4.57;1.50;;;12.50;99.90;;;;;;5050899;28;20475;-71
2023/04/13 13:02:41;;;;;;;5.40;1.50;;;13.00;99.90;;;;;;5055171;28;20450;-72
2023/04/13 13:05:26;;;;;;;7.93;1.90;;;13.40;95.10;;;;;;5055484;28;20528;-72
2023/04/13 13:08:12;;;;;;;3.97;1.10;;;13.60;92.00;;;;;;5057481;28;20407;-71
2023/04/13 13:10:59;;;;;;;4.50;1.83;;;13.60;93.20;;;;;;5056145;28;20421;-72
2023/04/13 13:13:45;;;;;;;5.37;1.93;;;13.30;92.00;;;;;;5062187;28;20443;-71
2023/04/13 13:16:30;;;;;;;5.70;2.07;;;13.00;93.20;;;;;;5057964;28;20468;-71
2023/04/13 13:19:16;;;;;;;9.17;3.30;;;12.90;94.80;;;;;;5065499;28;20459;-71
2023/04/13 13:22:02;;;;;;;5.00;2.00;;;12.70;94.20;;;;;;5071866;28;20435;-71
2023/04/13 13:24:48;;;;;;;5.40;1.50;;;12.60;96.90;;;;;;5062704;28;20530;-71
2023/04/13 13:27:35;;;;;;;4.93;1.73;;;12.40;93.90;;;;;;5065548;28;20563;-72
2023/04/13 13:30:22;;;;;;;3.37;1.77;;;12.40;95.90;;;;;;5054314;28;20581;-72
2023/04/13 13:33:08;;;;;;;4.33;1.40;;;12.20;95.00;;;;;;5058843;28;20444;-72
2023/04/13 13:35:53;;;;;;;3.60;1.60;;;12.10;99.70;;;;;;5061537;28;21005;-72
2023/04/13 13:38:39;;;;;;;2.80;1.10;;;12.00;99.90;;;;;;5067626;28;20521;-72
2023/04/13 13:41:25;;;;;;;3.93;1.40;;;11.50;99.90;;;;;;5065564;28;20448;-72
2023/04/13 13:44:12;;;;;;;6.40;2.10;;;11.20;99.90;;;;;;5061009;28;20460;-72
2023/04/13 13:46:57;;;;;;;5.77;1.37;;;11.00;99.90;;;;;;5057141;28;20443;-72
2023/04/13 13:49:43;;;;;;;2.60;1.20;;;10.70;99.90;;;;;;5060296;28;20854;-72
2023/04/13 13:52:29;;;;;;;2.40;1.00;;;10.60;99.90;;;;;;5060657;28;20498;-72
2023/04/13 13:55:15;;;;;;;2.50;1.20;;;10.50;99.90;;;;;;5067626;28;20463;-72
2023/04/13 13:58:00;;;;;;;3.73;1.90;;;10.50;99.90;;;;;;5061076;28;20466;-72
2023/04/13 14:00:48;;;;;;;6.47;1.13;;;10.50;99.90;;;;;;5057322;28;20847;-72
2023/04/13 14:03:33;;;;;;;2.40;1.20;;;10.40;99.90;;;;;;5060643;28;20397;-72
2023/04/13 14:06:19;;;;;;;3.73;1.50;;;10.50;99.90;;;;;;5057478;28;20776;-72
2023/04/13 14:09:05;;;;;;;2.37;1.00;;;10.50;99.90;;;;;;5064893;28;20976;-72
2023/04/13 14:11:51;;;;;;;2.70;1.33;;;10.80;99.90;;;;;;5064391;28;20556;-72
2023/04/13 14:14:37;;;;;;;3.70;1.30;;;11.10;99.90;;;;;;5071170;28;21018;-72
2023/04/13 14:17:24;;;;;;;3.63;1.50;;;11.50;99.90;;;;;;5059889;28;20974;-72
2023/04/13 14:20:10;;;;;;;2.93;1.13;;;11.70;99.90;;;;;;5061830;28;20744;-72
2023/04/13 14:22:57;;;;;;;7.50;2.40;;;11.90;99.90;;;;;;5060864;28;20822;-72
2023/04/13 14:25:43;;;;;;;5.77;1.20;;;12.00;99.90;;;;;;5061512;28;20464;-72
2023/04/13 14:28:28;;;;;;;7.10;1.50;;;11.80;99.90;;;;;;5060778;28;20433;-72
2023/04/13 14:31:14;;;;;;;3.40;1.03;;;11.70;99.90;;;;;;5069252;28;20425;-72
2023/04/13 14:34:01;;;;;;;3.97;1.07;;;11.60;99.90;;;;;;5062111;28;20957;-72
2023/04/13 14:36:47;;;;;;;4.40;1.60;;;11.50;99.90;;;;;;5058408;28;20463;-72